Portada
METAR-TAF:

METAR-TAF

Aeroports :

Newman, Austràlia

latitud: 23-25-04S, longitud: 119-48-10E, altitud: 525 m

Observació

L'informe es va fer fa 45 minuts, a les 14:00 UTC
Vent calma
Temperatura 11°C
Humitat 47%
Pressió 1018 hPa
Visibilitat 10 km o més

METAR: YNWN 161400Z AUTO 00000KT 9999 // NCD 11/M00 Q1018

Hora: 22:45 (14:45 UTC)


TAF: manca

Observacions i pronòstics meteorològics de més de 4000 aeroports (METAR i TAF).

Les estacions disponibles són els punts grocs i vermells al mapa.

Posi el ratolí al punt desitjat per veure el nom de l'estació.

Feu clic per veure les observacions i els pronòstics meteorològics.

Per canviar el mapa: feu clic els botons verds amb una creu de color negre per apropar; al botó verd amb un guió per allunyar la imatge; o en les fletxes verdes per a mapes adjacents.


METAR-TAF: